createdAt,value
2022-10-15T00:02:27.381Z,14.25
2022-10-15T00:07:29.380Z,14.29
2022-10-15T00:12:31.414Z,14.33
2022-10-15T00:17:34.075Z,14.35
2022-10-15T00:22:36.733Z,14.37
2022-10-15T00:27:38.519Z,14.40
2022-10-15T00:32:40.271Z,14.41
2022-10-15T00:37:44.045Z,14.41
2022-10-15T00:42:45.965Z,14.44
2022-10-15T00:47:49.387Z,14.46
2022-10-15T00:53:13.901Z,14.48
2022-10-15T00:58:22.395Z,14.50
2022-10-15T01:03:24.276Z,14.51
2022-10-15T01:08:25.907Z,14.53
2022-10-15T01:13:40.466Z,14.57
2022-10-15T01:18:55.610Z,14.57
2022-10-15T01:24:12.326Z,14.60
2022-10-15T01:29:25.415Z,14.60
2022-10-15T01:34:45.044Z,14.60
2022-10-15T01:40:09.065Z,14.61
2022-10-15T01:45:20.882Z,14.62
2022-10-15T01:50:39.672Z,14.62
2022-10-15T01:55:44.087Z,14.62
2022-10-15T02:00:47.530Z,14.63
2022-10-15T02:05:55.753Z,14.64
2022-10-15T02:11:05.823Z,14.66
2022-10-15T02:16:23.661Z,14.67
2022-10-15T02:21:56.593Z,14.68
2022-10-15T02:27:01.534Z,14.69
2022-10-15T02:32:06.296Z,14.69
2022-10-15T02:37:08.935Z,14.71
2022-10-15T02:42:10.600Z,14.70
2022-10-15T02:47:12.765Z,14.68
2022-10-15T02:52:14.531Z,14.70
2022-10-15T02:57:19.063Z,14.71
2022-10-15T03:02:21.032Z,14.73
2022-10-15T03:07:23.123Z,14.74
2022-10-15T03:12:26.013Z,14.73
2022-10-15T03:17:28.347Z,14.72
2022-10-15T03:22:30.049Z,14.71
2022-10-15T03:27:32.368Z,14.71
2022-10-15T03:32:36.216Z,14.71
2022-10-15T03:37:39.897Z,14.69
2022-10-15T03:42:43.973Z,14.69
2022-10-15T03:47:46.604Z,14.66
2022-10-15T03:52:48.286Z,14.67
2022-10-15T03:57:50.155Z,14.66
2022-10-15T04:02:53.120Z,14.63
2022-10-15T04:08:00.377Z,14.59
2022-10-15T04:13:04.528Z,14.59
2022-10-15T04:18:08.475Z,14.59
2022-10-15T04:23:11.588Z,14.57
2022-10-15T04:28:16.751Z,14.57
2022-10-15T04:33:20.559Z,14.54
2022-10-15T04:38:26.837Z,14.51
2022-10-15T04:43:37.475Z,14.48
2022-10-15T04:48:43.359Z,14.43
2022-10-15T04:53:48.004Z,14.40
2022-10-15T04:58:50.956Z,14.35
2022-10-15T05:03:52.884Z,14.34
2022-10-15T05:08:54.611Z,14.26
2022-10-15T05:14:01.105Z,14.20
2022-10-15T05:19:07.528Z,14.16
2022-10-15T05:24:11.669Z,14.15
2022-10-15T05:29:39.902Z,14.17
2022-10-15T05:34:41.512Z,14.16
2022-10-15T05:39:48.621Z,14.12
2022-10-15T05:44:50.760Z,14.15
2022-10-15T05:49:52.540Z,14.17
2022-10-15T05:55:05.714Z,14.18
2022-10-15T06:00:08.272Z,14.23
2022-10-15T06:05:15.830Z,14.27
2022-10-15T06:10:17.588Z,14.29
2022-10-15T06:15:19.511Z,14.31
2022-10-15T06:20:21.073Z,14.32
2022-10-15T06:25:22.644Z,14.38
2022-10-15T06:30:24.255Z,14.42
2022-10-15T06:35:26.875Z,14.47
2022-10-15T06:40:29.166Z,14.53
2022-10-15T06:45:30.755Z,14.62
2022-10-15T06:50:33.663Z,14.73
2022-10-15T06:55:35.588Z,14.91
2022-10-15T07:00:39.502Z,15.07
2022-10-15T07:05:41.052Z,15.14
2022-10-15T07:10:42.624Z,15.17
2022-10-15T07:15:46.247Z,15.04
2022-10-15T07:20:48.093Z,14.96
2022-10-15T07:25:49.649Z,14.87
2022-10-15T07:30:51.479Z,14.90
2022-10-15T07:35:53.032Z,14.90
2022-10-15T07:40:58.806Z,14.92
2022-10-15T07:46:01.481Z,15.06
2022-10-15T07:51:06.372Z,15.17
2022-10-15T07:56:12.554Z,15.29
2022-10-15T08:01:14.116Z,15.38
2022-10-15T08:06:16.120Z,15.43
2022-10-15T08:11:17.766Z,15.43
2022-10-15T08:16:21.950Z,15.27
2022-10-15T08:21:32.439Z,15.24
2022-10-15T08:26:34.645Z,15.32
2022-10-15T08:31:36.248Z,15.48
2022-10-15T08:36:37.813Z,15.62
2022-10-15T08:41:45.429Z,15.65
2022-10-15T08:46:50.961Z,15.57
2022-10-15T08:52:03.391Z,15.45
2022-10-15T08:57:21.683Z,15.52
2022-10-15T09:02:30.847Z,15.63
2022-10-15T09:07:39.315Z,15.76
2022-10-15T09:13:02.597Z,15.89
2022-10-15T09:18:04.837Z,16.29
2022-10-15T09:23:18.656Z,16.82
2022-10-15T09:28:25.852Z,17.17
2022-10-15T09:33:40.018Z,17.56
2022-10-15T09:38:53.708Z,17.77
2022-10-15T09:43:58.492Z,17.67
2022-10-15T09:49:18.787Z,17.38
2022-10-15T09:54:52.347Z,16.91
2022-10-15T09:59:55.188Z,16.61
2022-10-15T10:04:56.859Z,16.60
2022-10-15T10:10:03.699Z,16.69
2022-10-15T10:15:08.868Z,17.02
2022-10-15T10:20:15.716Z,17.51
2022-10-15T10:25:23.291Z,18.01
2022-10-15T10:30:24.999Z,18.54
2022-10-15T10:35:44.375Z,18.85
2022-10-15T10:40:51.435Z,18.95
2022-10-15T10:45:56.967Z,19.23
2022-10-15T10:51:06.955Z,19.48
2022-10-15T10:56:13.630Z,19.58
2022-10-15T11:01:15.764Z,19.76
2022-10-15T11:06:37.466Z,19.88
2022-10-15T11:12:11.163Z,19.80
2022-10-15T11:17:34.358Z,19.62
2022-10-15T11:22:50.644Z,19.46
2022-10-15T11:28:21.505Z,19.41
2022-10-15T11:33:41.500Z,19.60
2022-10-15T11:38:51.951Z,19.79
2022-10-15T11:44:32.068Z,19.64
2022-10-15T11:49:55.556Z,19.56
2022-10-15T11:55:19.072Z,19.53
2022-10-15T12:00:35.294Z,19.21
2022-10-15T12:05:43.736Z,19.21
2022-10-15T12:11:21.065Z,19.33
2022-10-15T12:16:30.278Z,19.31
2022-10-15T12:21:44.104Z,18.81
2022-10-15T12:26:45.667Z,18.62
2022-10-15T12:31:50.731Z,18.59
2022-10-15T12:37:26.585Z,18.58
2022-10-15T12:42:34.569Z,18.46
2022-10-15T12:48:16.408Z,18.28
2022-10-15T12:53:28.814Z,17.95
2022-10-15T12:58:37.666Z,17.92
2022-10-15T13:03:43.934Z,17.73
2022-10-15T13:08:49.292Z,17.59
2022-10-15T13:14:17.359Z,17.63
2022-10-15T13:19:20.523Z,17.61
2022-10-15T13:24:27.822Z,17.49
2022-10-15T13:29:29.474Z,17.20
2022-10-15T13:34:35.038Z,17.06
2022-10-15T13:39:41.457Z,16.94
2022-10-15T13:44:44.426Z,16.87
2022-10-15T13:49:46.014Z,16.82
2022-10-15T13:54:47.695Z,16.96
2022-10-15T13:59:49.353Z,16.90
2022-10-15T14:04:50.933Z,16.76
2022-10-15T14:09:53.093Z,16.68
2022-10-15T14:15:56.173Z,16.64
2022-10-15T14:20:58.064Z,16.65
2022-10-15T14:26:04.106Z,16.73
2022-10-15T14:31:06.790Z,16.74
2022-10-15T14:36:30.066Z,16.69
2022-10-15T14:41:34.406Z,16.79
2022-10-15T14:46:43.410Z,16.87
2022-10-15T14:51:46.054Z,16.92
2022-10-15T14:56:50.210Z,16.88
2022-10-15T15:02:01.700Z,16.87
2022-10-15T15:07:17.101Z,16.86
2022-10-15T15:12:25.499Z,16.74
2022-10-15T15:17:30.513Z,16.66
2022-10-15T15:22:33.244Z,16.60
2022-10-15T15:27:37.314Z,16.56
2022-10-15T15:32:39.281Z,16.52
2022-10-15T15:37:40.818Z,16.47
2022-10-15T15:42:42.769Z,16.46
2022-10-15T15:47:44.345Z,16.42
2022-10-15T15:52:46.211Z,16.34
2022-10-15T15:57:47.879Z,16.18
2022-10-15T16:02:51.177Z,15.89
2022-10-15T16:07:54.595Z,15.60
2022-10-15T16:12:56.371Z,15.52
2022-10-15T16:17:57.952Z,15.39
2022-10-15T16:22:59.555Z,15.17
2022-10-15T16:28:01.941Z,15.08
2022-10-15T16:33:03.832Z,15.05
2022-10-15T16:38:05.803Z,15.00
2022-10-15T16:43:07.414Z,14.99
2022-10-15T16:48:09.196Z,15.00
2022-10-15T16:53:10.739Z,15.01
2022-10-15T16:58:12.292Z,15.00
2022-10-15T17:03:14.016Z,15.00
2022-10-15T17:08:15.787Z,15.04
2022-10-15T17:13:20.141Z,15.10
2022-10-15T17:18:21.708Z,15.11
2022-10-15T17:23:23.268Z,15.10
2022-10-15T17:28:25.065Z,15.07
2022-10-15T17:33:26.674Z,15.08
2022-10-15T17:38:28.245Z,15.15
2022-10-15T17:43:29.805Z,15.21
2022-10-15T17:48:31.728Z,15.28
2022-10-15T17:53:33.744Z,15.32
2022-10-15T17:58:35.823Z,15.35
2022-10-15T18:03:37.365Z,15.37
2022-10-15T18:08:39.241Z,15.42
2022-10-15T18:13:41.096Z,15.43
2022-10-15T18:18:42.633Z,15.46
2022-10-15T18:23:44.529Z,15.45
2022-10-15T18:28:47.395Z,15.47
2022-10-15T18:33:55.437Z,15.51
2022-10-15T18:38:57.914Z,15.55
2022-10-15T18:44:02.266Z,15.58
2022-10-15T18:49:06.580Z,15.62
2022-10-15T18:54:10.716Z,15.65
2022-10-15T18:59:12.819Z,15.64
2022-10-15T19:04:16.491Z,15.64
2022-10-15T19:09:24.219Z,15.66
2022-10-15T19:14:28.167Z,15.69
2022-10-15T19:19:29.863Z,15.71
2022-10-15T19:24:32.118Z,15.74
2022-10-15T19:29:35.235Z,15.74
2022-10-15T19:34:37.064Z,15.74
2022-10-15T19:39:39.617Z,15.73
2022-10-15T19:44:41.308Z,15.71
2022-10-15T19:49:42.842Z,15.69
2022-10-15T19:54:44.420Z,15.64
2022-10-15T19:59:46.012Z,15.63
2022-10-15T20:04:47.528Z,15.65
2022-10-15T20:09:50.258Z,15.26
2022-10-15T20:14:51.844Z,15.06
2022-10-15T20:19:53.812Z,14.99
2022-10-15T20:24:55.374Z,14.97
2022-10-15T20:29:56.979Z,15.01
2022-10-15T20:34:58.507Z,15.03
2022-10-15T20:40:00.872Z,15.03
2022-10-15T20:45:11.332Z,15.11
2022-10-15T20:50:19.288Z,15.14
2022-10-15T20:55:21.169Z,15.23
2022-10-15T21:00:23.216Z,15.30
2022-10-15T21:05:24.819Z,15.33
2022-10-15T21:10:27.056Z,15.39
2022-10-15T21:15:30.577Z,15.46
2022-10-15T21:20:32.236Z,15.53
2022-10-15T21:25:34.264Z,15.60
2022-10-15T21:30:40.276Z,15.73
2022-10-15T21:35:41.831Z,15.86
2022-10-15T21:40:43.458Z,15.91
2022-10-15T21:45:45.123Z,15.90
2022-10-15T21:50:47.734Z,15.93
2022-10-15T21:55:53.802Z,15.95
2022-10-15T22:00:55.342Z,15.95
2022-10-15T22:05:58.694Z,15.92
2022-10-15T22:11:15.563Z,15.86
2022-10-15T22:16:18.146Z,15.84
2022-10-15T22:21:22.716Z,15.81
2022-10-15T22:26:28.016Z,15.72
2022-10-15T22:31:29.984Z,15.58
2022-10-15T22:36:31.896Z,15.39
2022-10-15T22:41:36.017Z,15.26
2022-10-15T22:46:39.960Z,15.13
2022-10-15T22:51:42.178Z,14.97
2022-10-15T22:56:43.747Z,14.79
2022-10-15T23:01:45.584Z,14.65
2022-10-15T23:06:47.214Z,14.46
2022-10-15T23:11:48.877Z,14.28
2022-10-15T23:16:50.437Z,14.24
2022-10-15T23:21:55.351Z,14.29
2022-10-15T23:26:56.984Z,14.27
2022-10-15T23:31:58.588Z,14.24
2022-10-15T23:37:00.551Z,14.10
2022-10-15T23:42:02.114Z,14.02
2022-10-15T23:47:03.699Z,13.95
2022-10-15T23:52:05.264Z,13.98
2022-10-15T23:57:06.790Z,14.03
